DJ3MD DNMM-DBBB
Flight info
| Callsign | DJ3MD |
|---|---|
| Flight time | 0h 41m |
| Altitude | 6000 |
| Route | POLTO DCT TYE |
| Aircraft | C152/L-SFG/C |
Departure
| Time | 2026-04-26 10:55 |
|---|---|
| Airport | Murtala Muhammed International Airport (DNMM) |
Arrival
| Time | 2026-04-26 11:36 |
|---|---|
| Airport | Cotonou Cadjehoun International Airport (DBBB) |
| Time | Latitude | Longitude | Altitude | Speed | Heading |
|---|---|---|---|---|---|
| 2026-04-26 10:47 | 6.59241 | 3.33143 | 133 ft | 0 kts | 155° |
| 2026-04-26 10:52 | 6.59240 | 3.33143 | 133 ft | 0 kts | 174° |
| 2026-04-26 10:52 | 6.59221 | 3.33117 | 132 ft | 5 kts | 238° |
| 2026-04-26 10:52 | 6.59203 | 3.33081 | 131 ft | 5 kts | 241° |
| 2026-04-26 10:53 | 6.59177 | 3.33064 | 130 ft | 3 kts | 200° |
| 2026-04-26 10:53 | 6.59155 | 3.33042 | 129 ft | 6 kts | 230° |
| 2026-04-26 10:53 | 6.59128 | 3.32985 | 127 ft | 10 kts | 252° |
| 2026-04-26 10:54 | 6.58938 | 3.32897 | 123 ft | 40 kts | 179° |
| 2026-04-26 10:54 | 6.58477 | 3.32888 | 219 ft | 60 kts | 182° |
| 2026-04-26 10:54 | 6.58025 | 3.32838 | 360 ft | 64 kts | 178° |
| 2026-04-26 10:54 | 6.57584 | 3.32838 | 536 ft | 60 kts | 177° |
| 2026-04-26 10:55 | 6.57138 | 3.32775 | 708 ft | 64 kts | 186° |
| 2026-04-26 10:55 | 6.56708 | 3.32726 | 872 ft | 61 kts | 176° |
| 2026-04-26 10:55 | 6.56236 | 3.32566 | 910 ft | 84 kts | 204° |
| 2026-04-26 10:55 | 6.55876 | 3.32333 | 1040 ft | 83 kts | 209° |
| 2026-04-26 10:56 | 6.55313 | 3.31731 | 1219 ft | 86 kts | 216° |
| 2026-04-26 10:56 | 6.54815 | 3.31326 | 1365 ft | 87 kts | 208° |
| 2026-04-26 10:56 | 6.54310 | 3.30985 | 1515 ft | 81 kts | 198° |
| 2026-04-26 10:56 | 6.53814 | 3.30633 | 1536 ft | 89 kts | 217° |
| 2026-04-26 10:57 | 6.53355 | 3.30153 | 1613 ft | 85 kts | 214° |
| 2026-04-26 10:57 | 6.52854 | 3.29840 | 1658 ft | 85 kts | 203° |
| 2026-04-26 10:57 | 6.52330 | 3.29521 | 1736 ft | 84 kts | 200° |
| 2026-04-26 10:57 | 6.51862 | 3.29100 | 1769 ft | 93 kts | 229° |
| 2026-04-26 10:58 | 6.51527 | 3.28430 | 1769 ft | 99 kts | 233° |
| 2026-04-26 10:58 | 6.51156 | 3.27816 | 1787 ft | 99 kts | 230° |
| 2026-04-26 10:58 | 6.50864 | 3.27456 | 1827 ft | 94 kts | 213° |
| 2026-04-26 10:58 | 6.50146 | 3.26909 | 1826 ft | 100 kts | 224° |
| 2026-04-26 10:59 | 6.49786 | 3.26215 | 1736 ft | 112 kts | 240° |
| 2026-04-26 10:59 | 6.49473 | 3.25488 | 1677 ft | 109 kts | 240° |
| 2026-04-26 10:59 | 6.49076 | 3.24850 | 1621 ft | 103 kts | 225° |
| 2026-04-26 10:59 | 6.48633 | 3.24258 | 1561 ft | 101 kts | 227° |
| 2026-04-26 11:00 | 6.48336 | 3.23605 | 1502 ft | 104 kts | 248° |
| 2026-04-26 11:00 | 6.48127 | 3.22844 | 1445 ft | 103 kts | 248° |
| 2026-04-26 11:00 | 6.47921 | 3.22133 | 1409 ft | 101 kts | 246° |
| 2026-04-26 11:00 | 6.47697 | 3.21446 | 1369 ft | 100 kts | 251° |
| 2026-04-26 11:01 | 6.47573 | 3.20731 | 1315 ft | 102 kts | 259° |
| 2026-04-26 11:01 | 6.47491 | 3.19961 | 1257 ft | 102 kts | 256° |
| 2026-04-26 11:01 | 6.47402 | 3.19268 | 1249 ft | 99 kts | 258° |
| 2026-04-26 11:01 | 6.47351 | 3.18544 | 1274 ft | 93 kts | 264° |
| 2026-04-26 11:02 | 6.47359 | 3.17867 | 1349 ft | 84 kts | 266° |
| 2026-04-26 11:02 | 6.47339 | 3.17288 | 1409 ft | 80 kts | 261° |
| 2026-04-26 11:02 | 6.47319 | 3.16681 | 1462 ft | 78 kts | 264° |
| 2026-04-26 11:02 | 6.47303 | 3.16088 | 1502 ft | 80 kts | 253° |
| 2026-04-26 11:03 | 6.47222 | 3.15493 | 1580 ft | 88 kts | 254° |
| 2026-04-26 11:03 | 6.47134 | 3.14829 | 1704 ft | 87 kts | 254° |
| 2026-04-26 11:03 | 6.46996 | 3.14166 | 1736 ft | 96 kts | 249° |
| 2026-04-26 11:03 | 6.46881 | 3.13497 | 1870 ft | 93 kts | 255° |
| 2026-04-26 11:04 | 6.46702 | 3.12804 | 1945 ft | 94 kts | 237° |
| 2026-04-26 11:04 | 6.46505 | 3.12149 | 2039 ft | 98 kts | 251° |
| 2026-04-26 11:04 | 6.46377 | 3.11485 | 2160 ft | 94 kts | 248° |
| 2026-04-26 11:04 | 6.46117 | 3.10838 | 2242 ft | 95 kts | 243° |
| 2026-04-26 11:05 | 6.45953 | 3.10180 | 2328 ft | 97 kts | 251° |
| 2026-04-26 11:05 | 6.45745 | 3.09538 | 2419 ft | 94 kts | 233° |
| 2026-04-26 11:05 | 6.45436 | 3.08964 | 2514 ft | 93 kts | 236° |
| 2026-04-26 11:05 | 6.45179 | 3.08349 | 2587 ft | 96 kts | 245° |
| 2026-04-26 11:06 | 6.44966 | 3.07703 | 2649 ft | 95 kts | 243° |
| 2026-04-26 11:06 | 6.44768 | 3.07303 | 2686 ft | 94 kts | 238° |
| 2026-04-26 11:06 | 6.44473 | 3.06435 | 2722 ft | 97 kts | 243° |
| 2026-04-26 11:06 | 6.44104 | 3.05901 | 2756 ft | 94 kts | 220° |
| 2026-04-26 11:07 | 6.43669 | 3.05377 | 2753 ft | 99 kts | 227° |
| 2026-04-26 11:07 | 6.43254 | 3.04770 | 2727 ft | 104 kts | 234° |
| 2026-04-26 11:07 | 6.42960 | 3.04090 | 2764 ft | 104 kts | 246° |
| 2026-04-26 11:07 | 6.42814 | 3.03614 | 2768 ft | 104 kts | 248° |
| 2026-04-26 11:08 | 6.42420 | 3.02726 | 2788 ft | 104 kts | 239° |
| 2026-04-26 11:08 | 6.42248 | 3.01998 | 2777 ft | 109 kts | 263° |
| 2026-04-26 11:08 | 6.42249 | 3.01483 | 2823 ft | 105 kts | 268° |
| 2026-04-26 11:08 | 6.42152 | 3.00501 | 2810 ft | 107 kts | 243° |
| 2026-04-26 11:09 | 6.41859 | 3.00104 | 2795 ft | 103 kts | 209° |
| 2026-04-26 11:09 | 6.41296 | 2.99356 | 2686 ft | 119 kts | 256° |
| 2026-04-26 11:09 | 6.41193 | 2.98514 | 2522 ft | 120 kts | 266° |
| 2026-04-26 11:09 | 6.41138 | 2.97708 | 2404 ft | 112 kts | 261° |
| 2026-04-26 11:10 | 6.41075 | 2.96931 | 2422 ft | 107 kts | 260° |
| 2026-04-26 11:10 | 6.41035 | 2.96185 | 2420 ft | 106 kts | 264° |
| 2026-04-26 11:10 | 6.40996 | 2.95431 | 2435 ft | 105 kts | 264° |
| 2026-04-26 11:10 | 6.40985 | 2.94689 | 2511 ft | 104 kts | 262° |
| 2026-04-26 11:11 | 6.40969 | 2.93980 | 2624 ft | 102 kts | 268° |
| 2026-04-26 11:11 | 6.40957 | 2.93264 | 2729 ft | 101 kts | 263° |
| 2026-04-26 11:11 | 6.40918 | 2.92546 | 2789 ft | 102 kts | 261° |
| 2026-04-26 11:11 | 6.40872 | 2.91819 | 2744 ft | 104 kts | 263° |
| 2026-04-26 11:12 | 6.40849 | 2.91090 | 2727 ft | 102 kts | 262° |
| 2026-04-26 11:12 | 6.40860 | 2.90327 | 2629 ft | 109 kts | 272° |
| 2026-04-26 11:12 | 6.40892 | 2.89569 | 2628 ft | 105 kts | 262° |
| 2026-04-26 11:12 | 6.40788 | 2.88820 | 2554 ft | 108 kts | 257° |
| 2026-04-26 11:13 | 6.40677 | 2.88062 | 2470 ft | 111 kts | 258° |
| 2026-04-26 11:13 | 6.40590 | 2.87263 | 2404 ft | 111 kts | 261° |
| 2026-04-26 11:13 | 6.40522 | 2.86483 | 2364 ft | 110 kts | 262° |
| 2026-04-26 11:13 | 6.40454 | 2.85696 | 2320 ft | 108 kts | 259° |
| 2026-04-26 11:14 | 6.40377 | 2.84923 | 2286 ft | 108 kts | 259° |
| 2026-04-26 11:14 | 6.40294 | 2.84168 | 2240 ft | 108 kts | 261° |
| 2026-04-26 11:14 | 6.40214 | 2.83383 | 2166 ft | 110 kts | 258° |
| 2026-04-26 11:14 | 6.40163 | 2.82859 | 2140 ft | 109 kts | 261° |
| 2026-04-26 11:15 | 6.40066 | 2.81821 | 2090 ft | 108 kts | 262° |
| 2026-04-26 11:15 | 6.39981 | 2.81045 | 2017 ft | 110 kts | 256° |
| 2026-04-26 11:15 | 6.39875 | 2.80261 | 1972 ft | 109 kts | 258° |
| 2026-04-26 11:15 | 6.39798 | 2.79736 | 1914 ft | 111 kts | 258° |
| 2026-04-26 11:16 | 6.39601 | 2.78708 | 1804 ft | 112 kts | 249° |
| 2026-04-26 11:16 | 6.39361 | 2.77928 | 1761 ft | 109 kts | 249° |
| 2026-04-26 11:16 | 6.39169 | 2.77139 | 1640 ft | 115 kts | 252° |
| 2026-04-26 11:16 | 6.39024 | 2.76356 | 1617 ft | 110 kts | 256° |
| 2026-04-26 11:17 | 6.38950 | 2.75550 | 1539 ft | 112 kts | 262° |
| 2026-04-26 11:17 | 6.38876 | 2.74755 | 1501 ft | 109 kts | 256° |
| 2026-04-26 11:17 | 6.38762 | 2.74005 | 1475 ft | 107 kts | 254° |
| 2026-04-26 11:17 | 6.38610 | 2.73323 | 1454 ft | 106 kts | 256° |
| 2026-04-26 11:18 | 6.38520 | 2.72560 | 1436 ft | 105 kts | 259° |
| 2026-04-26 11:18 | 6.38479 | 2.71838 | 1435 ft | 103 kts | 265° |
| 2026-04-26 11:18 | 6.38428 | 2.71111 | 1454 ft | 99 kts | 256° |
| 2026-04-26 11:18 | 6.38282 | 2.70386 | 1428 ft | 101 kts | 254° |
| 2026-04-26 11:19 | 6.38186 | 2.69640 | 1363 ft | 106 kts | 257° |
| 2026-04-26 11:19 | 6.38053 | 2.68900 | 1365 ft | 102 kts | 254° |
| 2026-04-26 11:19 | 6.37926 | 2.68179 | 1389 ft | 98 kts | 255° |
| 2026-04-26 11:19 | 6.37842 | 2.67477 | 1396 ft | 96 kts | 256° |
| 2026-04-26 11:20 | 6.37678 | 2.66821 | 1395 ft | 92 kts | 238° |
| 2026-04-26 11:20 | 6.37419 | 2.66468 | 1346 ft | 93 kts | 221° |
| 2026-04-26 11:20 | 6.36992 | 2.65715 | 1303 ft | 101 kts | 252° |
| 2026-04-26 11:20 | 6.36905 | 2.64978 | 1244 ft | 104 kts | 262° |
| 2026-04-26 11:21 | 6.36826 | 2.64248 | 1206 ft | 103 kts | 256° |
| 2026-04-26 11:21 | 6.36735 | 2.63524 | 1144 ft | 106 kts | 261° |
| 2026-04-26 11:21 | 6.36632 | 2.62816 | 1165 ft | 100 kts | 255° |
| 2026-04-26 11:21 | 6.36516 | 2.62119 | 1125 ft | 102 kts | 258° |
| 2026-04-26 11:22 | 6.36402 | 2.61386 | 1021 ft | 108 kts | 255° |
| 2026-04-26 11:22 | 6.36306 | 2.60659 | 1015 ft | 103 kts | 259° |
| 2026-04-26 11:22 | 6.36260 | 2.59941 | 983 ft | 104 kts | 263° |
| 2026-04-26 11:22 | 6.36229 | 2.59261 | 1045 ft | 93 kts | 263° |
| 2026-04-26 11:23 | 6.36227 | 2.58604 | 1052 ft | 93 kts | 265° |
| 2026-04-26 11:23 | 6.36253 | 2.57967 | 1100 ft | 90 kts | 271° |
| 2026-04-26 11:23 | 6.36306 | 2.57336 | 1106 ft | 92 kts | 271° |
| 2026-04-26 11:23 | 6.36364 | 2.56685 | 1128 ft | 94 kts | 269° |
| 2026-04-26 11:24 | 6.36403 | 2.56042 | 1156 ft | 94 kts | 269° |
| 2026-04-26 11:24 | 6.36431 | 2.55585 | 1146 ft | 97 kts | 272° |
| 2026-04-26 11:24 | 6.36345 | 2.54687 | 1120 ft | 99 kts | 238° |
| 2026-04-26 11:24 | 6.36068 | 2.54332 | 1158 ft | 91 kts | 221° |
| 2026-04-26 11:25 | 6.35679 | 2.53556 | 1122 ft | 101 kts | 244° |
| 2026-04-26 11:25 | 6.35492 | 2.53127 | 1127 ft | 99 kts | 236° |
| 2026-04-26 11:25 | 6.34954 | 2.52423 | 1240 ft | 82 kts | 219° |
| 2026-04-26 11:25 | 6.34695 | 2.52190 | 1324 ft | 76 kts | 207° |
| 2026-04-26 11:26 | 6.34244 | 2.51843 | 1372 ft | 82 kts | 219° |
| 2026-04-26 11:26 | 6.33891 | 2.51381 | 1458 ft | 83 kts | 224° |
| 2026-04-26 11:26 | 6.33421 | 2.50800 | 1606 ft | 79 kts | 225° |
| 2026-04-26 11:26 | 6.33193 | 2.50493 | 1640 ft | 84 kts | 228° |
| 2026-04-26 11:27 | 6.32850 | 2.49740 | 1710 ft | 90 kts | 237° |
| 2026-04-26 11:27 | 6.32663 | 2.49374 | 1763 ft | 89 kts | 234° |
| 2026-04-26 11:27 | 6.32259 | 2.48615 | 1824 ft | 93 kts | 234° |
| 2026-04-26 11:27 | 6.32042 | 2.48233 | 1833 ft | 96 kts | 233° |
| 2026-04-26 11:28 | 6.31578 | 2.47409 | 1831 ft | 101 kts | 235° |
| 2026-04-26 11:28 | 6.31233 | 2.46743 | 1674 ft | 116 kts | 238° |
| 2026-04-26 11:28 | 6.30860 | 2.45992 | 1438 ft | 125 kts | 240° |
| 2026-04-26 11:28 | 6.30530 | 2.45246 | 1265 ft | 113 kts | 245° |
| 2026-04-26 11:29 | 6.30351 | 2.44482 | 1048 ft | 111 kts | 259° |
| 2026-04-26 11:29 | 6.30187 | 2.43723 | 917 ft | 106 kts | 245° |
| 2026-04-26 11:29 | 6.29819 | 2.43179 | 1042 ft | 80 kts | 219° |
| 2026-04-26 11:29 | 6.29449 | 2.42861 | 1228 ft | 64 kts | 207° |
| 2026-04-26 11:30 | 6.29119 | 2.42550 | 1361 ft | 73 kts | 223° |
| 2026-04-26 11:30 | 6.28913 | 2.42242 | 1426 ft | 82 kts | 230° |
| 2026-04-26 11:30 | 6.28520 | 2.41539 | 1592 ft | 91 kts | 245° |
| 2026-04-26 11:30 | 6.28375 | 2.40887 | 1638 ft | 102 kts | 255° |
| 2026-04-26 11:31 | 6.28240 | 2.40173 | 1684 ft | 106 kts | 254° |
| 2026-04-26 11:31 | 6.28159 | 2.39410 | 1671 ft | 113 kts | 269° |
| 2026-04-26 11:31 | 6.28277 | 2.38590 | 1455 ft | 121 kts | 278° |
| 2026-04-26 11:31 | 6.28390 | 2.37757 | 1301 ft | 119 kts | 271° |
| 2026-04-26 11:32 | 6.28401 | 2.36938 | 1134 ft | 117 kts | 263° |
| 2026-04-26 11:32 | 6.28353 | 2.36122 | 1007 ft | 113 kts | 271° |
| 2026-04-26 11:32 | 6.28537 | 2.35341 | 817 ft | 116 kts | 287° |
| 2026-04-26 11:32 | 6.28855 | 2.34635 | 731 ft | 109 kts | 299° |
| 2026-04-26 11:33 | 6.29207 | 2.33970 | 688 ft | 106 kts | 300° |
| 2026-04-26 11:33 | 6.29669 | 2.33439 | 703 ft | 100 kts | 326° |
| 2026-04-26 11:33 | 6.30288 | 2.33154 | 765 ft | 91 kts | 351° |
| 2026-04-26 11:33 | 6.30937 | 2.33119 | 777 ft | 91 kts | 13° |
| 2026-04-26 11:34 | 6.31583 | 2.33221 | 809 ft | 89 kts | 17° |
| 2026-04-26 11:34 | 6.32127 | 2.33457 | 856 ft | 87 kts | 44° |
| 2026-04-26 11:34 | 6.32516 | 2.33923 | 843 ft | 85 kts | 63° |
| 2026-04-26 11:34 | 6.32840 | 2.34427 | 815 ft | 85 kts | 58° |
| 2026-04-26 11:35 | 6.33155 | 2.34908 | 801 ft | 79 kts | 58° |
| 2026-04-26 11:35 | 6.33469 | 2.35358 | 729 ft | 77 kts | 60° |
| 2026-04-26 11:35 | 6.33789 | 2.35826 | 515 ft | 84 kts | 57° |
| 2026-04-26 11:35 | 6.34015 | 2.36149 | 400 ft | 83 kts | 57° |
| 2026-04-26 11:36 | 6.34410 | 2.36684 | 301 ft | 62 kts | 56° |
| 2026-04-26 11:36 | 6.34648 | 2.37015 | 199 ft | 51 kts | 51° |
| 2026-04-26 11:36 | 6.34861 | 2.37291 | 119 ft | 43 kts | 59° |
| 2026-04-26 11:36 | 6.35054 | 2.37526 | 59 ft | 43 kts | 53° |
| 2026-04-26 11:37 | 6.35266 | 2.37828 | 41 ft | 53 kts | 49° |
| 2026-04-26 11:37 | 6.35509 | 2.38138 | 20 ft | 48 kts | 59° |
| 2026-04-26 11:37 | 6.35612 | 2.38345 | 19 ft | 17 kts | 115° |
| 2026-04-26 11:37 | 6.35563 | 2.38399 | 21 ft | 0 kts | 145° |
| 2026-04-26 11:38 | 6.35556 | 2.38402 | 22 ft | 2 kts | 166° |
| 2026-04-26 11:38 | 6.35533 | 2.38415 | 23 ft | 3 kts | 153° |
| 2026-04-26 11:38 | 6.35494 | 2.38416 | 24 ft | 6 kts | 206° |
| 2026-04-26 11:38 | 6.35461 | 2.38384 | 24 ft | 5 kts | 231° |
| 2026-04-26 11:39 | 6.35431 | 2.38347 | 24 ft | 9 kts | 226° |
| 2026-04-26 11:39 | 6.35385 | 2.38337 | 24 ft | 5 kts | 201° |
| 2026-04-26 11:39 | 6.35360 | 2.38312 | 24 ft | 4 kts | 270° |
| 2026-04-26 11:39 | 6.35363 | 2.38300 | 24 ft | 0 kts | 288° |